createdAt,value
2022-12-17T00:00:28.236Z,44.72
2022-12-17T00:03:16.574Z,45.15
2022-12-17T00:06:03.890Z,42.15
2022-12-17T00:08:49.820Z,48.20
2022-12-17T00:11:35.400Z,46.58
2022-12-17T00:14:21.444Z,43.00
2022-12-17T00:17:06.851Z,43.15
2022-12-17T00:19:52.794Z,37.90
2022-12-17T00:22:43.340Z,43.97
2022-12-17T00:25:28.630Z,41.40
2022-12-17T00:28:14.487Z,41.15
2022-12-17T00:31:00.028Z,40.45
2022-12-17T00:33:45.344Z,41.45
2022-12-17T00:36:36.135Z,39.30
2022-12-17T00:39:23.768Z,35.95
2022-12-17T00:42:09.695Z,37.85
2022-12-17T00:44:55.393Z,33.05
2022-12-17T00:47:42.355Z,35.05
2022-12-17T00:50:30.016Z,37.90
2022-12-17T00:53:16.400Z,30.75
2022-12-17T00:56:03.391Z,32.15
2022-12-17T00:58:49.047Z,30.73
2022-12-17T01:01:35.036Z,35.78
2022-12-17T01:04:20.656Z,32.50
2022-12-17T01:07:06.268Z,32.08
2022-12-17T01:09:56.987Z,27.88
2022-12-17T01:12:43.918Z,33.90
2022-12-17T01:15:30.245Z,27.83
2022-12-17T01:18:15.698Z,34.53
2022-12-17T01:21:01.182Z,29.17
2022-12-17T01:24:01.025Z,31.23
2022-12-17T01:26:46.597Z,31.98
2022-12-17T01:29:34.751Z,31.38
2022-12-17T01:32:16.895Z,28.02
2022-12-17T01:35:02.770Z,27.55
2022-12-17T01:37:48.862Z,29.48
2022-12-17T01:40:34.643Z,24.90
2022-12-17T01:43:20.587Z,27.77
2022-12-17T01:46:08.339Z,26.63
2022-12-17T01:49:00.329Z,28.15
2022-12-17T01:51:53.550Z,31.45
2022-12-17T01:54:39.754Z,36.78
2022-12-17T01:57:26.052Z,27.48
2022-12-17T02:00:18.455Z,24.77
2022-12-17T02:03:05.342Z,31.13
2022-12-17T02:05:58.870Z,27.90
2022-12-17T02:09:03.118Z,33.97
2022-12-17T02:11:58.550Z,31.90
2022-12-17T02:14:52.331Z,22.30
2022-12-17T02:17:44.732Z,26.98
2022-12-17T02:20:45.267Z,28.67
2022-12-17T02:23:42.802Z,28.65
2022-12-17T02:26:32.852Z,31.63
2022-12-17T02:29:21.774Z,30.40
2022-12-17T02:32:09.350Z,25.95
2022-12-17T02:35:04.089Z,26.65
2022-12-17T02:37:50.848Z,33.72
2022-12-17T02:40:37.588Z,24.13
2022-12-17T02:43:24.544Z,22.92
2022-12-17T02:46:21.178Z,22.10
2022-12-17T02:49:22.250Z,20.52
2022-12-17T02:52:08.425Z,29.73
2022-12-17T02:54:54.097Z,20.17
2022-12-17T02:57:44.023Z,27.85
2022-12-17T03:00:32.778Z,20.38
2022-12-17T03:03:20.435Z,20.77
2022-12-17T03:06:06.353Z,22.63
2022-12-17T03:08:49.108Z,26.67
2022-12-17T03:11:35.734Z,20.48
2022-12-17T03:14:21.174Z,21.98
2022-12-17T03:17:06.597Z,25.50
2022-12-17T03:19:57.416Z,23.08
2022-12-17T03:22:42.800Z,22.48
2022-12-17T03:25:28.738Z,25.58
2022-12-17T03:28:14.436Z,22.80
2022-12-17T03:30:59.999Z,18.85
2022-12-17T03:33:45.474Z,25.50
2022-12-17T03:36:32.741Z,27.52
2022-12-17T03:39:18.526Z,20.05
2022-12-17T03:42:04.063Z,21.58
2022-12-17T03:44:49.514Z,21.58
2022-12-17T03:47:35.321Z,20.05
2022-12-17T03:50:21.013Z,17.75
2022-12-17T03:53:08.255Z,18.15
2022-12-17T03:55:54.011Z,17.67
2022-12-17T03:58:39.475Z,20.63
2022-12-17T04:01:25.286Z,21.23
2022-12-17T04:04:10.663Z,18.08
2022-12-17T04:06:56.032Z,23.40
2022-12-17T04:09:43.055Z,26.20
2022-12-17T04:12:28.371Z,17.85
2022-12-17T04:15:14.430Z,24.60
2022-12-17T04:18:00.402Z,18.80
2022-12-17T04:20:45.721Z,19.23
2022-12-17T04:23:31.218Z,21.27
2022-12-17T04:26:18.186Z,23.98
2022-12-17T04:29:03.866Z,23.58
2022-12-17T04:31:49.318Z,28.65
2022-12-17T04:34:34.846Z,18.42
2022-12-17T04:37:20.879Z,25.77
2022-12-17T04:40:06.671Z,20.80
2022-12-17T04:42:53.682Z,17.95
2022-12-17T04:45:39.095Z,20.30
2022-12-17T04:48:26.431Z,18.23
2022-12-17T04:51:12.154Z,20.17
2022-12-17T04:53:57.799Z,18.25
2022-12-17T04:56:46.497Z,19.92
2022-12-17T04:59:33.464Z,25.15
2022-12-17T05:02:19.069Z,23.75
2022-12-17T05:05:19.640Z,32.72
2022-12-17T05:08:05.271Z,20.70
2022-12-17T05:10:53.184Z,19.60
2022-12-17T05:13:39.109Z,26.70
2022-12-17T05:16:26.424Z,25.73
2022-12-17T05:19:12.370Z,28.08
2022-12-17T05:21:57.805Z,23.42
2022-12-17T05:24:43.881Z,23.30
2022-12-17T05:27:29.191Z,25.33
2022-12-17T05:30:14.639Z,21.77
2022-12-17T05:32:58.062Z,18.85
2022-12-17T05:35:43.435Z,22.52
2022-12-17T05:38:29.827Z,22.13
2022-12-17T05:41:16.134Z,19.95
2022-12-17T05:44:02.135Z,24.55
2022-12-17T05:46:44.384Z,21.08
2022-12-17T05:49:31.540Z,22.92
2022-12-17T05:52:19.490Z,29.05
2022-12-17T05:55:05.108Z,26.67
2022-12-17T05:57:56.036Z,20.98
2022-12-17T06:00:42.572Z,18.73
2022-12-17T06:03:28.430Z,22.40
2022-12-17T06:06:17.501Z,27.83
2022-12-17T06:09:02.903Z,27.05
2022-12-17T06:11:48.249Z,22.02
2022-12-17T06:14:33.715Z,26.17
2022-12-17T06:17:24.879Z,25.55
2022-12-17T06:20:10.468Z,21.25
2022-12-17T06:22:57.294Z,18.55
2022-12-17T06:25:42.806Z,21.95
2022-12-17T06:28:28.080Z,21.15
2022-12-17T06:31:14.062Z,20.30
2022-12-17T06:33:59.905Z,22.15
2022-12-17T06:36:45.462Z,21.17
2022-12-17T06:39:32.600Z,21.30
2022-12-17T06:42:18.111Z,21.17
2022-12-17T06:45:03.857Z,25.45
2022-12-17T06:47:49.435Z,25.63
2022-12-17T06:50:35.351Z,19.58
2022-12-17T06:53:22.716Z,21.60
2022-12-17T06:56:10.282Z,26.55
2022-12-17T06:58:55.840Z,29.27
2022-12-17T07:01:41.694Z,23.98
2022-12-17T07:04:27.759Z,22.90
2022-12-17T07:07:13.599Z,22.73
2022-12-17T07:10:01.933Z,19.02
2022-12-17T07:12:48.918Z,17.88
2022-12-17T07:15:34.777Z,19.17
2022-12-17T07:18:21.649Z,15.82
2022-12-17T07:21:07.500Z,17.85
2022-12-17T07:23:53.365Z,14.55
2022-12-17T07:26:39.476Z,14.20
2022-12-17T07:29:26.734Z,14.15
2022-12-17T07:32:12.213Z,20.42
2022-12-17T07:34:58.074Z,13.60
2022-12-17T07:37:43.328Z,16.65
2022-12-17T07:40:29.678Z,14.80
2022-12-17T07:43:15.203Z,19.73
2022-12-17T07:46:02.266Z,17.75
2022-12-17T07:48:48.236Z,19.38
2022-12-17T07:51:35.537Z,14.52
2022-12-17T07:54:20.912Z,16.17
2022-12-17T07:57:06.316Z,13.88
2022-12-17T07:59:51.645Z,14.73
2022-12-17T08:02:39.104Z,14.70
2022-12-17T08:05:25.445Z,15.80
2022-12-17T08:08:12.114Z,14.95
2022-12-17T08:10:58.071Z,13.05
2022-12-17T08:13:43.842Z,17.48
2022-12-17T08:16:29.531Z,19.55
2022-12-17T08:19:16.680Z,20.55
2022-12-17T08:22:02.386Z,21.17
2022-12-17T08:24:47.675Z,18.30
2022-12-17T08:27:32.969Z,16.13
2022-12-17T08:30:18.516Z,22.85
2022-12-17T08:33:03.947Z,17.13
2022-12-17T08:36:05.493Z,17.30
2022-12-17T08:38:51.214Z,17.02
2022-12-17T08:41:38.245Z,12.88
2022-12-17T08:44:23.912Z,14.50
2022-12-17T08:47:09.705Z,13.35
2022-12-17T08:49:55.523Z,18.70
2022-12-17T08:52:42.622Z,15.75
2022-12-17T08:55:28.705Z,10.02
2022-12-17T08:58:15.635Z,5.90
2022-12-17T09:01:02.196Z,4.87
2022-12-17T09:03:48.352Z,7.23
2022-12-17T09:06:38.896Z,6.70
2022-12-17T09:09:26.417Z,4.40
2022-12-17T09:12:12.259Z,5.43
2022-12-17T09:14:57.764Z,6.20
2022-12-17T09:17:43.348Z,6.70
2022-12-17T09:20:29.788Z,5.10
2022-12-17T09:23:15.619Z,5.80
2022-12-17T09:26:02.910Z,6.13
2022-12-17T09:28:48.650Z,3.37
2022-12-17T09:31:37.558Z,4.07
2022-12-17T09:34:23.750Z,5.40
2022-12-17T09:37:09.593Z,4.07
2022-12-17T09:39:56.627Z,4.90
2022-12-17T09:42:52.515Z,2.73
2022-12-17T09:45:46.296Z,3.40
2022-12-17T09:48:41.832Z,9.63
2022-12-17T09:51:39.878Z,3.85
2022-12-17T09:54:33.397Z,4.25
2022-12-17T09:57:19.513Z,3.83
2022-12-17T10:00:06.325Z,4.15
2022-12-17T10:02:58.341Z,3.47
2022-12-17T10:05:48.158Z,5.30
2022-12-17T10:08:37.145Z,5.05
2022-12-17T10:11:36.935Z,2.42
2022-12-17T10:14:30.303Z,15.93
2022-12-17T10:17:17.238Z,5.30
2022-12-17T10:20:03.701Z,9.70
2022-12-17T10:22:49.574Z,12.38
2022-12-17T10:25:37.781Z,5.07
2022-12-17T10:28:25.764Z,4.13
2022-12-17T10:31:11.206Z,4.82
2022-12-17T10:33:59.585Z,4.22
2022-12-17T10:36:47.102Z,5.50
2022-12-17T10:39:38.518Z,3.40
2022-12-17T10:42:39.110Z,3.42
2022-12-17T10:45:48.709Z,5.10
2022-12-17T10:48:37.266Z,8.90
2022-12-17T10:51:35.474Z,8.45
2022-12-17T10:54:27.935Z,3.58
2022-12-17T10:57:18.009Z,7.95
2022-12-17T11:00:04.998Z,3.60
2022-12-17T11:02:51.769Z,4.10
2022-12-17T11:05:45.423Z,3.22
2022-12-17T11:08:34.902Z,3.00
2022-12-17T11:11:25.105Z,3.75
2022-12-17T11:14:11.692Z,5.43
2022-12-17T11:17:01.255Z,3.42
2022-12-17T11:19:56.958Z,2.60
2022-12-17T11:22:49.778Z,3.90
2022-12-17T11:25:48.664Z,5.15
2022-12-17T11:28:40.371Z,4.05
2022-12-17T11:31:57.077Z,4.38
2022-12-17T11:34:51.443Z,4.25
2022-12-17T11:37:40.614Z,6.10
2022-12-17T11:40:40.235Z,10.20
2022-12-17T11:43:36.895Z,12.75
2022-12-17T11:46:33.607Z,10.23
2022-12-17T11:49:26.449Z,12.90
2022-12-17T11:52:17.902Z,8.10
2022-12-17T11:55:16.222Z,9.23
2022-12-17T11:58:08.231Z,9.50
2022-12-17T12:01:06.315Z,9.50
2022-12-17T12:04:01.411Z,8.57
2022-12-17T12:06:58.907Z,12.52
2022-12-17T12:09:53.973Z,10.77
2022-12-17T12:12:55.873Z,10.70
2022-12-17T12:15:47.730Z,13.38
2022-12-17T12:18:48.466Z,12.27
2022-12-17T12:21:45.882Z,14.30
2022-12-17T12:24:40.751Z,14.13
2022-12-17T12:27:40.873Z,12.30
2022-12-17T12:30:33.782Z,10.00
2022-12-17T12:33:32.203Z,10.70
2022-12-17T12:36:22.955Z,6.03
2022-12-17T12:39:12.890Z,8.43
2022-12-17T12:42:06.358Z,6.00
2022-12-17T12:45:05.230Z,10.53
2022-12-17T12:47:59.111Z,9.57
2022-12-17T12:50:51.757Z,12.70
2022-12-17T12:53:40.207Z,15.53
2022-12-17T12:56:44.338Z,14.38
2022-12-17T12:59:51.784Z,20.70
2022-12-17T13:02:44.760Z,20.98
2022-12-17T13:05:33.859Z,15.80
2022-12-17T13:08:20.770Z,15.53
2022-12-17T13:10:51.816Z,18.00
2022-12-17T13:13:32.824Z,14.43
2022-12-17T13:16:05.788Z,14.13
2022-12-17T13:18:36.554Z,11.52
2022-12-17T13:21:07.765Z,13.35
2022-12-17T13:23:38.130Z,11.55
2022-12-17T13:26:23.826Z,13.07
2022-12-17T13:29:04.698Z,12.25
2022-12-17T13:31:48.550Z,10.85
2022-12-17T13:34:26.033Z,10.35
2022-12-17T13:37:02.810Z,17.58
2022-12-17T13:39:41.149Z,22.60
2022-12-17T13:42:20.306Z,24.75
2022-12-17T13:44:48.830Z,21.02
2022-12-17T13:47:23.124Z,18.95
2022-12-17T13:50:17.063Z,19.40
2022-12-17T13:52:41.718Z,18.65
2022-12-17T13:55:17.890Z,21.20
2022-12-17T13:57:48.462Z,20.73
2022-12-17T14:00:22.660Z,19.25
2022-12-17T14:02:51.770Z,16.55
2022-12-17T14:05:33.207Z,17.77
2022-12-17T14:08:04.501Z,22.40
2022-12-17T14:10:33.558Z,26.23
2022-12-17T14:13:07.164Z,23.55
2022-12-17T14:15:35.837Z,19.60
2022-12-17T14:18:04.999Z,17.33
2022-12-17T14:20:35.131Z,21.30
2022-12-17T14:23:06.413Z,17.47
2022-12-17T14:25:38.328Z,16.27
2022-12-17T14:28:21.954Z,20.17
2022-12-17T14:31:25.727Z,30.38
2022-12-17T14:33:43.989Z,26.30
2022-12-17T14:36:21.162Z,20.88
2022-12-17T14:38:55.789Z,21.47
2022-12-17T14:41:44.142Z,17.20
2022-12-17T14:44:21.716Z,24.50
2022-12-17T14:47:08.707Z,31.83
2022-12-17T14:49:50.863Z,21.55
2022-12-17T14:52:29.265Z,68.65
2022-12-17T14:54:57.645Z,38.30
2022-12-17T14:57:26.080Z,27.13
2022-12-17T14:59:55.846Z,24.30
2022-12-17T15:02:26.773Z,27.63
2022-12-17T15:04:58.013Z,40.08
2022-12-17T15:07:27.789Z,25.08
2022-12-17T15:09:56.901Z,28.13
2022-12-17T15:12:26.312Z,49.47
2022-12-17T15:14:55.894Z,37.13
2022-12-17T15:17:24.181Z,45.65
2022-12-17T15:19:56.175Z,37.95
2022-12-17T15:22:24.850Z,30.98
2022-12-17T15:24:53.034Z,27.05
2022-12-17T15:27:21.244Z,34.25
2022-12-17T15:29:49.671Z,44.63
2022-12-17T15:32:21.519Z,42.40
2022-12-17T15:34:50.583Z,25.52
2022-12-17T15:37:25.280Z,30.85
2022-12-17T15:39:54.214Z,26.05
2022-12-17T15:42:39.699Z,25.35
2022-12-17T15:45:09.450Z,21.45
2022-12-17T15:47:39.049Z,36.35
2022-12-17T15:50:08.640Z,26.88
2022-12-17T15:52:37.108Z,30.45
2022-12-17T15:55:05.585Z,27.23
2022-12-17T15:57:33.915Z,29.02
2022-12-17T16:00:02.242Z,35.40
2022-12-17T16:02:33.734Z,40.97
2022-12-17T16:05:04.507Z,41.50
2022-12-17T16:07:32.724Z,46.85
2022-12-17T16:10:05.211Z,48.45
2022-12-17T16:12:33.892Z,49.78
2022-12-17T16:15:02.877Z,48.63
2022-12-17T16:17:31.985Z,60.55
2022-12-17T16:20:00.691Z,57.92
2022-12-17T16:22:30.289Z,59.42
2022-12-17T16:24:58.443Z,62.15
2022-12-17T16:27:26.734Z,58.17
2022-12-17T16:29:54.942Z,66.47
2022-12-17T16:32:23.148Z,92.05
2022-12-17T16:34:51.283Z,77.72
2022-12-17T16:37:20.118Z,69.47
2022-12-17T16:39:53.967Z,73.93
2022-12-17T16:42:27.988Z,73.72
2022-12-17T16:44:56.315Z,71.25
2022-12-17T16:47:24.672Z,78.57
2022-12-17T16:49:53.113Z,75.00
2022-12-17T16:52:21.419Z,83.45
2022-12-17T16:54:50.971Z,86.40
2022-12-17T16:57:19.225Z,71.82
2022-12-17T16:59:47.420Z,61.15
2022-12-17T17:02:17.115Z,58.95
2022-12-17T17:04:45.770Z,65.43
2022-12-17T17:07:13.974Z,60.13
2022-12-17T17:09:42.558Z,51.42
2022-12-17T17:12:12.847Z,57.38
2022-12-17T17:14:43.861Z,139.05
2022-12-17T17:17:12.127Z,122.40
2022-12-17T17:19:40.355Z,81.40
2022-12-17T17:22:08.691Z,74.88
2022-12-17T17:24:36.922Z,94.15
2022-12-17T17:27:05.304Z,88.43
2022-12-17T17:29:34.852Z,82.03
2022-12-17T17:32:11.618Z,86.40
2022-12-17T17:34:42.426Z,66.47
2022-12-17T17:37:10.881Z,74.10
2022-12-17T17:39:39.110Z,65.43
2022-12-17T17:42:07.609Z,72.10
2022-12-17T17:44:38.389Z,67.10
2022-12-17T17:47:06.702Z,66.25
2022-12-17T17:49:35.049Z,59.53
2022-12-17T17:52:11.371Z,220.95
2022-12-17T17:54:40.963Z,110.55
2022-12-17T17:57:10.106Z,95.28
2022-12-17T17:59:40.570Z,78.60
2022-12-17T18:02:10.857Z,86.75
2022-12-17T18:04:39.959Z,108.28
2022-12-17T18:07:24.771Z,113.32
2022-12-17T18:09:54.149Z,132.98
2022-12-17T18:12:40.418Z,146.07
2022-12-17T18:15:16.269Z,133.43
2022-12-17T18:17:45.912Z,132.18
2022-12-17T18:20:14.536Z,110.75
2022-12-17T18:22:43.440Z,97.57
2022-12-17T18:25:11.967Z,64.88
2022-12-17T18:27:40.223Z,53.20
2022-12-17T18:30:10.965Z,43.38
2022-12-17T18:32:39.302Z,39.33
2022-12-17T18:35:08.533Z,44.00
2022-12-17T18:37:36.898Z,41.60
2022-12-17T18:40:05.702Z,44.00
2022-12-17T18:42:51.306Z,42.90
2022-12-17T18:45:21.018Z,32.20
2022-12-17T18:47:49.403Z,35.30
2022-12-17T18:50:17.667Z,36.45
2022-12-17T18:52:45.811Z,29.10
2022-12-17T18:55:14.018Z,29.90
2022-12-17T18:57:42.154Z,28.40
2022-12-17T19:00:11.705Z,26.70
2022-12-17T19:02:41.424Z,21.85
2022-12-17T19:05:10.181Z,25.30
2022-12-17T19:07:38.400Z,24.45
2022-12-17T19:10:07.576Z,24.58
2022-12-17T19:12:35.851Z,27.58
2022-12-17T19:15:04.189Z,26.67
2022-12-17T19:17:32.461Z,29.02
2022-12-17T19:20:02.390Z,25.90
2022-12-17T19:22:31.217Z,26.38
2022-12-17T19:24:59.627Z,26.65
2022-12-17T19:27:28.941Z,31.13
2022-12-17T19:29:57.329Z,34.42
2022-12-17T19:32:26.082Z,38.33
2022-12-17T19:34:54.271Z,35.67
2022-12-17T19:37:23.925Z,27.77
2022-12-17T19:39:52.069Z,31.02
2022-12-17T19:42:26.915Z,30.15
2022-12-17T19:44:56.756Z,40.10
2022-12-17T19:47:25.377Z,29.02
2022-12-17T19:49:53.611Z,34.20
2022-12-17T19:52:23.239Z,30.27
2022-12-17T19:54:51.683Z,32.67
2022-12-17T19:57:19.855Z,28.30
2022-12-17T19:59:48.176Z,28.23
2022-12-17T20:02:17.439Z,28.92
2022-12-17T20:04:45.841Z,26.75
2022-12-17T20:07:14.158Z,32.58
2022-12-17T20:09:44.693Z,36.03
2022-12-17T20:12:13.959Z,34.58
2022-12-17T20:14:42.144Z,30.67
2022-12-17T20:17:11.011Z,31.83
2022-12-17T20:19:39.231Z,36.38
2022-12-17T20:22:07.806Z,30.27
2022-12-17T20:24:37.385Z,28.25
2022-12-17T20:27:08.066Z,31.58
2022-12-17T20:29:36.275Z,29.77
2022-12-17T20:32:04.637Z,22.45
2022-12-17T20:34:33.066Z,29.42
2022-12-17T20:37:01.340Z,29.05
2022-12-17T20:39:29.957Z,26.92
2022-12-17T20:41:58.266Z,26.60
2022-12-17T20:44:27.854Z,27.75
2022-12-17T20:46:56.458Z,31.27
2022-12-17T20:49:24.663Z,30.30
2022-12-17T20:51:52.909Z,27.25
2022-12-17T20:54:22.039Z,18.50
2022-12-17T20:56:50.325Z,23.45
2022-12-17T20:59:19.929Z,22.52
2022-12-17T21:01:55.610Z,21.75
2022-12-17T21:04:24.743Z,24.80
2022-12-17T21:06:53.092Z,22.27
2022-12-17T21:09:22.648Z,22.08
2022-12-17T21:11:51.022Z,20.30
2022-12-17T21:14:20.405Z,22.25
2022-12-17T21:16:50.218Z,23.15
2022-12-17T21:19:20.201Z,20.75
2022-12-17T21:21:48.919Z,24.23
2022-12-17T21:24:17.223Z,19.15
2022-12-17T21:26:46.980Z,23.30
2022-12-17T21:29:15.651Z,22.30
2022-12-17T21:31:45.902Z,18.23
2022-12-17T21:34:17.859Z,17.30
2022-12-17T21:36:46.162Z,22.58
2022-12-17T21:39:16.512Z,20.60
2022-12-17T21:42:04.222Z,20.15
2022-12-17T21:44:33.146Z,15.07
2022-12-17T21:47:02.192Z,18.15
2022-12-17T21:49:31.963Z,18.63
2022-12-17T21:52:01.248Z,15.13
2022-12-17T21:54:29.703Z,13.85
2022-12-17T21:56:57.953Z,14.20
2022-12-17T21:59:26.239Z,13.15
2022-12-17T22:01:57.280Z,14.63
2022-12-17T22:04:26.422Z,13.23
2022-12-17T22:07:02.232Z,14.10
2022-12-17T22:09:59.616Z,13.80
2022-12-17T22:12:44.875Z,10.18
2022-12-17T22:15:13.210Z,10.10
2022-12-17T22:17:42.110Z,10.13
2022-12-17T22:20:11.360Z,8.93
2022-12-17T22:22:40.987Z,10.20
2022-12-17T22:25:10.365Z,9.90
2022-12-17T22:27:39.994Z,12.18
2022-12-17T22:30:29.831Z,15.25
2022-12-17T22:33:00.767Z,7.85
2022-12-17T22:36:40.977Z,8.23
2022-12-17T22:42:36.052Z,8.20
2022-12-17T22:44:30.557Z,8.68
2022-12-17T22:44:42.780Z,10.30
2022-12-17T22:47:09.962Z,8.57
2022-12-17T22:49:41.019Z,9.73
2022-12-17T22:52:12.510Z,8.55
2022-12-17T22:54:42.261Z,8.38
2022-12-17T22:57:36.229Z,8.02
2022-12-17T22:59:59.334Z,10.00
2022-12-17T23:02:27.566Z,7.45
2022-12-17T23:04:55.806Z,7.82
2022-12-17T23:07:29.917Z,8.18
2022-12-17T23:10:02.082Z,8.70
2022-12-17T23:12:47.859Z,8.55
2022-12-17T23:15:16.063Z,10.57
2022-12-17T23:17:44.633Z,9.98
2022-12-17T23:20:13.557Z,10.05
2022-12-17T23:22:41.809Z,9.52
2022-12-17T23:25:12.072Z,8.38
2022-12-17T23:27:40.297Z,8.80
2022-12-17T23:30:09.812Z,9.10
2022-12-17T23:32:38.362Z,9.60
2022-12-17T23:35:07.604Z,11.25
2022-12-17T23:37:39.763Z,11.70
2022-12-17T23:40:11.671Z,11.02
2022-12-17T23:42:39.936Z,14.60
2022-12-17T23:45:11.158Z,12.48
2022-12-17T23:47:40.015Z,11.40
2022-12-17T23:50:12.125Z,10.48
2022-12-17T23:52:40.620Z,12.00
2022-12-17T23:55:09.286Z,12.13
2022-12-17T23:57:38.854Z,10.50
